sensor_id;sensor_type;location;lat;lon;timestamp;temperature;humidity
26952;DHT22;14507;52.418;13.398;2023-09-30T00:01:09;18.10;99.90
26952;DHT22;14507;52.418;13.398;2023-09-30T00:03:36;18.10;99.90
26952;DHT22;14507;52.418;13.398;2023-09-30T00:06:01;18.10;99.90
26952;DHT22;14507;52.418;13.398;2023-09-30T00:08:27;18.10;99.90
26952;DHT22;14507;52.418;13.398;2023-09-30T00:10:53;18.10;99.90
26952;DHT22;14507;52.418;13.398;2023-09-30T00:13:20;18.10;99.90
26952;DHT22;14507;52.418;13.398;2023-09-30T00:15:45;18.00;99.90
26952;DHT22;14507;52.418;13.398;2023-09-30T00:18:11;18.00;99.90
26952;DHT22;14507;52.418;13.398;2023-09-30T00:20:38;18.00;99.90
26952;DHT22;14507;52.418;13.398;2023-09-30T00:23:04;17.90;99.90
26952;DHT22;14507;52.418;13.398;2023-09-30T00:25:32;17.90;99.90
26952;DHT22;14507;52.418;13.398;2023-09-30T00:27:58;17.80;99.90
26952;DHT22;14507;52.418;13.398;2023-09-30T00:30:23;17.80;99.90
26952;DHT22;14507;52.418;13.398;2023-09-30T00:32:49;17.80;99.90
26952;DHT22;14507;52.418;13.398;2023-09-30T00:35:15;17.70;99.90
26952;DHT22;14507;52.418;13.398;2023-09-30T00:37:42;17.70;99.90
26952;DHT22;14507;52.418;13.398;2023-09-30T00:40:08;17.60;99.90
26952;DHT22;14507;52.418;13.398;2023-09-30T00:42:38;17.60;99.90
26952;DHT22;14507;52.418;13.398;2023-09-30T00:45:04;17.50;99.90
26952;DHT22;14507;52.418;13.398;2023-09-30T00:47:31;17.40;99.90
26952;DHT22;14507;52.418;13.398;2023-09-30T00:49:57;17.40;99.90
26952;DHT22;14507;52.418;13.398;2023-09-30T00:52:23;17.30;99.90
26952;DHT22;14507;52.418;13.398;2023-09-30T00:54:49;17.30;99.90
26952;DHT22;14507;52.418;13.398;2023-09-30T00:57:17;17.20;99.90
26952;DHT22;14507;52.418;13.398;2023-09-30T00:59:44;17.10;99.90
26952;DHT22;14507;52.418;13.398;2023-09-30T01:02:09;17.10;99.90
26952;DHT22;14507;52.418;13.398;2023-09-30T01:04:35;17.00;99.90
26952;DHT22;14507;52.418;13.398;2023-09-30T01:07:02;16.90;99.90
26952;DHT22;14507;52.418;13.398;2023-09-30T01:09:27;16.80;99.90
26952;DHT22;14507;52.418;13.398;2023-09-30T01:11:53;16.80;99.90
26952;DHT22;14507;52.418;13.398;2023-09-30T01:14:30;16.70;99.90
26952;DHT22;14507;52.418;13.398;2023-09-30T01:16:56;16.70;99.90
26952;DHT22;14507;52.418;13.398;2023-09-30T01:19:22;16.60;99.90
26952;DHT22;14507;52.418;13.398;2023-09-30T01:21:56;16.50;99.90
26952;DHT22;14507;52.418;13.398;2023-09-30T01:24:39;16.50;99.90
26952;DHT22;14507;52.418;13.398;2023-09-30T01:27:05;16.40;99.90
26952;DHT22;14507;52.418;13.398;2023-09-30T01:29:31;16.40;99.90
26952;DHT22;14507;52.418;13.398;2023-09-30T01:31:57;16.40;99.90
26952;DHT22;14507;52.418;13.398;2023-09-30T01:34:23;16.30;99.90
26952;DHT22;14507;52.418;13.398;2023-09-30T01:36:49;16.30;99.90
26952;DHT22;14507;52.418;13.398;2023-09-30T01:39:14;16.20;99.90
26952;DHT22;14507;52.418;13.398;2023-09-30T01:41:40;16.20;99.90
26952;DHT22;14507;52.418;13.398;2023-09-30T01:44:07;16.10;99.90
26952;DHT22;14507;52.418;13.398;2023-09-30T01:46:33;16.10;99.90
26952;DHT22;14507;52.418;13.398;2023-09-30T01:48:58;16.00;99.90
26952;DHT22;14507;52.418;13.398;2023-09-30T01:51:24;16.00;99.90
26952;DHT22;14507;52.418;13.398;2023-09-30T01:53:50;16.00;99.90
26952;DHT22;14507;52.418;13.398;2023-09-30T01:56:15;15.90;99.90
26952;DHT22;14507;52.418;13.398;2023-09-30T01:58:41;15.80;99.90
26952;DHT22;14507;52.418;13.398;2023-09-30T02:01:08;15.80;99.90
26952;DHT22;14507;52.418;13.398;2023-09-30T02:03:34;15.70;99.90
26952;DHT22;14507;52.418;13.398;2023-09-30T02:06:00;15.70;99.90
26952;DHT22;14507;52.418;13.398;2023-09-30T02:08:25;15.70;99.90
26952;DHT22;14507;52.418;13.398;2023-09-30T02:10:54;15.60;99.90
26952;DHT22;14507;52.418;13.398;2023-09-30T02:13:19;15.60;99.90
26952;DHT22;14507;52.418;13.398;2023-09-30T02:15:45;15.50;99.90
26952;DHT22;14507;52.418;13.398;2023-09-30T02:18:11;15.50;99.90
26952;DHT22;14507;52.418;13.398;2023-09-30T02:20:37;15.40;99.90
26952;DHT22;14507;52.418;13.398;2023-09-30T02:23:06;15.40;99.90
26952;DHT22;14507;52.418;13.398;2023-09-30T02:25:32;15.40;99.90
26952;DHT22;14507;52.418;13.398;2023-09-30T02:27:58;15.40;99.90
26952;DHT22;14507;52.418;13.398;2023-09-30T02:30:24;15.30;99.90
26952;DHT22;14507;52.418;13.398;2023-09-30T02:32:50;15.30;99.90
26952;DHT22;14507;52.418;13.398;2023-09-30T02:35:15;15.30;99.90
26952;DHT22;14507;52.418;13.398;2023-09-30T02:37:41;15.20;99.90
26952;DHT22;14507;52.418;13.398;2023-09-30T02:40:08;15.30;99.90
26952;DHT22;14507;52.418;13.398;2023-09-30T02:42:38;15.20;99.90
26952;DHT22;14507;52.418;13.398;2023-09-30T02:45:05;15.20;99.90
26952;DHT22;14507;52.418;13.398;2023-09-30T02:47:31;15.10;99.90
26952;DHT22;14507;52.418;13.398;2023-09-30T02:49:58;15.10;99.90
26952;DHT22;14507;52.418;13.398;2023-09-30T02:52:27;15.10;99.90
26952;DHT22;14507;52.418;13.398;2023-09-30T02:54:55;15.00;99.90
26952;DHT22;14507;52.418;13.398;2023-09-30T02:57:20;15.00;99.90
26952;DHT22;14507;52.418;13.398;2023-09-30T02:59:47;15.00;99.90
26952;DHT22;14507;52.418;13.398;2023-09-30T03:02:13;15.00;99.90
26952;DHT22;14507;52.418;13.398;2023-09-30T03:04:38;15.00;99.90
26952;DHT22;14507;52.418;13.398;2023-09-30T03:07:04;15.00;99.90
26952;DHT22;14507;52.418;13.398;2023-09-30T03:09:30;15.00;99.90
26952;DHT22;14507;52.418;13.398;2023-09-30T03:11:57;15.00;99.90
26952;DHT22;14507;52.418;13.398;2023-09-30T03:14:24;15.00;99.90
26952;DHT22;14507;52.418;13.398;2023-09-30T03:16:50;14.90;99.90
26952;DHT22;14507;52.418;13.398;2023-09-30T03:19:16;14.90;99.90
26952;DHT22;14507;52.418;13.398;2023-09-30T03:21:42;14.90;99.90
26952;DHT22;14507;52.418;13.398;2023-09-30T03:24:08;14.80;99.90
26952;DHT22;14507;52.418;13.398;2023-09-30T03:26:34;14.80;99.90
26952;DHT22;14507;52.418;13.398;2023-09-30T03:29:01;14.80;99.90
26952;DHT22;14507;52.418;13.398;2023-09-30T03:31:26;14.70;99.90
26952;DHT22;14507;52.418;13.398;2023-09-30T03:33:52;14.70;99.90
26952;DHT22;14507;52.418;13.398;2023-09-30T03:36:22;14.70;99.90
26952;DHT22;14507;52.418;13.398;2023-09-30T03:38:53;14.70;99.90
26952;DHT22;14507;52.418;13.398;2023-09-30T03:41:24;14.70;99.90
26952;DHT22;14507;52.418;13.398;2023-09-30T03:43:50;14.70;99.90
26952;DHT22;14507;52.418;13.398;2023-09-30T03:46:16;14.60;99.90
26952;DHT22;14507;52.418;13.398;2023-09-30T03:48:42;14.60;99.90
26952;DHT22;14507;52.418;13.398;2023-09-30T03:51:13;14.60;99.90
26952;DHT22;14507;52.418;13.398;2023-09-30T03:53:43;14.70;99.90
26952;DHT22;14507;52.418;13.398;2023-09-30T03:56:09;14.70;99.90
26952;DHT22;14507;52.418;13.398;2023-09-30T03:58:40;14.60;99.90
26952;DHT22;14507;52.418;13.398;2023-09-30T04:01:07;14.50;99.90
26952;DHT22;14507;52.418;13.398;2023-09-30T04:03:53;14.50;99.90
26952;DHT22;14507;52.418;13.398;2023-09-30T04:06:21;14.50;99.90
26952;DHT22;14507;52.418;13.398;2023-09-30T04:08:47;14.50;99.90
26952;DHT22;14507;52.418;13.398;2023-09-30T04:11:13;14.40;99.90
26952;DHT22;14507;52.418;13.398;2023-09-30T04:13:44;14.40;99.90
26952;DHT22;14507;52.418;13.398;2023-09-30T04:16:10;14.40;99.90
26952;DHT22;14507;52.418;13.398;2023-09-30T04:18:36;14.40;99.90
26952;DHT22;14507;52.418;13.398;2023-09-30T04:21:02;14.40;99.90
26952;DHT22;14507;52.418;13.398;2023-09-30T04:23:29;14.40;99.90
26952;DHT22;14507;52.418;13.398;2023-09-30T04:25:55;14.30;99.90
26952;DHT22;14507;52.418;13.398;2023-09-30T04:28:21;14.30;99.90
26952;DHT22;14507;52.418;13.398;2023-09-30T04:30:50;14.30;99.90
26952;DHT22;14507;52.418;13.398;2023-09-30T04:33:16;14.30;99.90
26952;DHT22;14507;52.418;13.398;2023-09-30T04:35:46;14.20;99.90
26952;DHT22;14507;52.418;13.398;2023-09-30T04:38:12;14.20;99.90
26952;DHT22;14507;52.418;13.398;2023-09-30T04:40:38;14.20;99.90
26952;DHT22;14507;52.418;13.398;2023-09-30T04:43:04;14.20;99.90
26952;DHT22;14507;52.418;13.398;2023-09-30T04:45:31;14.20;99.90
26952;DHT22;14507;52.418;13.398;2023-09-30T04:47:56;14.10;99.90
26952;DHT22;14507;52.418;13.398;2023-09-30T04:50:22;14.10;99.90
26952;DHT22;14507;52.418;13.398;2023-09-30T04:52:48;14.10;99.90
26952;DHT22;14507;52.418;13.398;2023-09-30T04:55:14;14.10;99.90
26952;DHT22;14507;52.418;13.398;2023-09-30T04:57:47;14.10;99.90
26952;DHT22;14507;52.418;13.398;2023-09-30T05:00:15;14.00;99.90
26952;DHT22;14507;52.418;13.398;2023-09-30T05:02:43;14.00;99.90
26952;DHT22;14507;52.418;13.398;2023-09-30T05:05:10;14.10;99.90
26952;DHT22;14507;52.418;13.398;2023-09-30T05:07:36;14.00;99.90
26952;DHT22;14507;52.418;13.398;2023-09-30T05:10:03;14.00;99.90
26952;DHT22;14507;52.418;13.398;2023-09-30T05:12:35;13.90;99.90
26952;DHT22;14507;52.418;13.398;2023-09-30T05:15:01;14.00;99.90
26952;DHT22;14507;52.418;13.398;2023-09-30T05:17:27;14.00;99.90
26952;DHT22;14507;52.418;13.398;2023-09-30T05:19:55;13.90;99.90
26952;DHT22;14507;52.418;13.398;2023-09-30T05:22:21;13.90;99.90
26952;DHT22;14507;52.418;13.398;2023-09-30T05:24:52;13.90;99.90
26952;DHT22;14507;52.418;13.398;2023-09-30T05:27:18;13.90;99.90
26952;DHT22;14507;52.418;13.398;2023-09-30T05:29:44;13.90;99.90
26952;DHT22;14507;52.418;13.398;2023-09-30T05:32:10;13.90;99.90
26952;DHT22;14507;52.418;13.398;2023-09-30T05:34:36;14.00;99.90
26952;DHT22;14507;52.418;13.398;2023-09-30T05:37:02;14.00;99.90
26952;DHT22;14507;52.418;13.398;2023-09-30T05:39:28;14.00;99.90
26952;DHT22;14507;52.418;13.398;2023-09-30T05:41:54;14.10;99.90
26952;DHT22;14507;52.418;13.398;2023-09-30T05:44:20;14.10;99.90
26952;DHT22;14507;52.418;13.398;2023-09-30T05:46:46;14.10;99.90
26952;DHT22;14507;52.418;13.398;2023-09-30T05:49:12;14.20;99.90
26952;DHT22;14507;52.418;13.398;2023-09-30T05:51:40;14.20;99.90
26952;DHT22;14507;52.418;13.398;2023-09-30T05:54:07;14.30;99.90
26952;DHT22;14507;52.418;13.398;2023-09-30T05:56:38;14.40;99.90
26952;DHT22;14507;52.418;13.398;2023-09-30T05:59:07;14.70;99.90
26952;DHT22;14507;52.418;13.398;2023-09-30T06:01:33;15.10;99.90
26952;DHT22;14507;52.418;13.398;2023-09-30T06:04:00;15.60;99.90
26952;DHT22;14507;52.418;13.398;2023-09-30T06:06:29;15.90;99.90
26952;DHT22;14507;52.418;13.398;2023-09-30T06:08:56;16.20;99.90
26952;DHT22;14507;52.418;13.398;2023-09-30T06:11:24;16.40;99.90
26952;DHT22;14507;52.418;13.398;2023-09-30T06:13:53;16.50;99.90
26952;DHT22;14507;52.418;13.398;2023-09-30T06:16:19;16.50;99.90
26952;DHT22;14507;52.418;13.398;2023-09-30T06:18:45;16.60;99.90
26952;DHT22;14507;52.418;13.398;2023-09-30T06:21:15;16.60;99.90
26952;DHT22;14507;52.418;13.398;2023-09-30T06:23:43;16.60;99.90
26952;DHT22;14507;52.418;13.398;2023-09-30T06:26:09;16.60;99.90
26952;DHT22;14507;52.418;13.398;2023-09-30T06:28:35;16.50;99.90
26952;DHT22;14507;52.418;13.398;2023-09-30T06:31:09;16.50;99.90
26952;DHT22;14507;52.418;13.398;2023-09-30T06:33:38;16.40;99.90
26952;DHT22;14507;52.418;13.398;2023-09-30T06:36:12;16.40;99.90
26952;DHT22;14507;52.418;13.398;2023-09-30T06:38:41;16.20;99.90
26952;DHT22;14507;52.418;13.398;2023-09-30T06:41:18;16.20;99.90
26952;DHT22;14507;52.418;13.398;2023-09-30T06:43:44;16.10;99.90
26952;DHT22;14507;52.418;13.398;2023-09-30T06:46:10;16.00;99.90
26952;DHT22;14507;52.418;13.398;2023-09-30T06:48:37;16.00;99.90
26952;DHT22;14507;52.418;13.398;2023-09-30T06:51:02;16.20;99.90
26952;DHT22;14507;52.418;13.398;2023-09-30T06:53:28;16.40;99.90
26952;DHT22;14507;52.418;13.398;2023-09-30T06:55:54;16.60;99.90
26952;DHT22;14507;52.418;13.398;2023-09-30T06:58:19;16.60;99.90
26952;DHT22;14507;52.418;13.398;2023-09-30T07:00:51;16.60;99.90
26952;DHT22;14507;52.418;13.398;2023-09-30T07:03:18;16.60;99.90
26952;DHT22;14507;52.418;13.398;2023-09-30T07:05:47;16.70;99.90
26952;DHT22;14507;52.418;13.398;2023-09-30T07:08:18;17.10;99.90
26952;DHT22;14507;52.418;13.398;2023-09-30T07:10:46;17.70;99.90
26952;DHT22;14507;52.418;13.398;2023-09-30T07:13:14;18.50;99.90
26952;DHT22;14507;52.418;13.398;2023-09-30T07:15:40;19.00;99.90
26952;DHT22;14507;52.418;13.398;2023-09-30T07:18:06;19.10;99.90
26952;DHT22;14507;52.418;13.398;2023-09-30T07:20:32;19.00;99.90
26952;DHT22;14507;52.418;13.398;2023-09-30T07:23:02;19.00;99.90
26952;DHT22;14507;52.418;13.398;2023-09-30T07:25:29;18.80;99.90
26952;DHT22;14507;52.418;13.398;2023-09-30T07:27:57;18.60;99.90
26952;DHT22;14507;52.418;13.398;2023-09-30T07:30:23;18.50;99.90
26952;DHT22;14507;52.418;13.398;2023-09-30T07:32:49;18.30;99.90
26952;DHT22;14507;52.418;13.398;2023-09-30T07:35:16;18.10;99.90
26952;DHT22;14507;52.418;13.398;2023-09-30T07:37:42;18.00;99.90
26952;DHT22;14507;52.418;13.398;2023-09-30T07:40:08;17.90;99.90
26952;DHT22;14507;52.418;13.398;2023-09-30T07:42:37;17.90;99.90
26952;DHT22;14507;52.418;13.398;2023-09-30T07:45:03;17.90;99.90
26952;DHT22;14507;52.418;13.398;2023-09-30T07:47:29;17.90;99.90
26952;DHT22;14507;52.418;13.398;2023-09-30T07:49:56;18.00;99.90
26952;DHT22;14507;52.418;13.398;2023-09-30T07:52:22;18.40;99.90
26952;DHT22;14507;52.418;13.398;2023-09-30T07:54:47;18.80;99.90
26952;DHT22;14507;52.418;13.398;2023-09-30T07:57:13;19.10;99.90
26952;DHT22;14507;52.418;13.398;2023-09-30T07:59:39;19.10;99.90
26952;DHT22;14507;52.418;13.398;2023-09-30T08:02:05;18.90;99.90
26952;DHT22;14507;52.418;13.398;2023-09-30T08:04:32;18.50;99.90
26952;DHT22;14507;52.418;13.398;2023-09-30T08:06:58;18.20;99.90
26952;DHT22;14507;52.418;13.398;2023-09-30T08:09:23;17.90;99.90
26952;DHT22;14507;52.418;13.398;2023-09-30T08:11:50;17.70;99.90
26952;DHT22;14507;52.418;13.398;2023-09-30T08:14:16;17.50;99.90
26952;DHT22;14507;52.418;13.398;2023-09-30T08:16:42;17.50;99.90
26952;DHT22;14507;52.418;13.398;2023-09-30T08:19:08;17.40;99.90
26952;DHT22;14507;52.418;13.398;2023-09-30T08:21:34;17.50;99.90
26952;DHT22;14507;52.418;13.398;2023-09-30T08:24:01;17.70;99.90
26952;DHT22;14507;52.418;13.398;2023-09-30T08:26:27;18.20;99.90
26952;DHT22;14507;52.418;13.398;2023-09-30T08:28:52;18.90;99.90
26952;DHT22;14507;52.418;13.398;2023-09-30T08:31:18;19.70;99.90
26952;DHT22;14507;52.418;13.398;2023-09-30T08:33:45;20.60;99.90
26952;DHT22;14507;52.418;13.398;2023-09-30T08:36:11;21.10;99.60
26952;DHT22;14507;52.418;13.398;2023-09-30T08:38:38;21.60;98.80
26952;DHT22;14507;52.418;13.398;2023-09-30T08:41:04;22.20;96.90
26952;DHT22;14507;52.418;13.398;2023-09-30T08:43:31;22.30;96.70
26952;DHT22;14507;52.418;13.398;2023-09-30T08:45:59;22.00;97.10
26952;DHT22;14507;52.418;13.398;2023-09-30T08:48:26;21.70;97.70
26952;DHT22;14507;52.418;13.398;2023-09-30T08:50:53;21.40;98.00
26952;DHT22;14507;52.418;13.398;2023-09-30T08:53:23;21.70;97.10
26952;DHT22;14507;52.418;13.398;2023-09-30T08:55:54;22.30;96.70
26952;DHT22;14507;52.418;13.398;2023-09-30T08:58:23;22.60;96.30
26952;DHT22;14507;52.418;13.398;2023-09-30T09:00:49;22.60;95.60
26952;DHT22;14507;52.418;13.398;2023-09-30T09:03:15;22.50;95.80
26952;DHT22;14507;52.418;13.398;2023-09-30T09:05:41;22.50;95.90
26952;DHT22;14507;52.418;13.398;2023-09-30T09:08:07;22.70;95.90
26952;DHT22;14507;52.418;13.398;2023-09-30T09:10:34;23.30;94.50
26952;DHT22;14507;52.418;13.398;2023-09-30T09:13:00;24.10;93.70
26952;DHT22;14507;52.418;13.398;2023-09-30T09:15:27;24.60;92.40
26952;DHT22;14507;52.418;13.398;2023-09-30T09:17:56;24.90;92.20
26952;DHT22;14507;52.418;13.398;2023-09-30T09:20:23;25.50;91.30
26952;DHT22;14507;52.418;13.398;2023-09-30T09:22:53;26.30;90.10
26952;DHT22;14507;52.418;13.398;2023-09-30T09:25:22;27.00;87.20
26952;DHT22;14507;52.418;13.398;2023-09-30T09:27:49;27.60;86.00
26952;DHT22;14507;52.418;13.398;2023-09-30T09:30:19;28.10;85.00
26952;DHT22;14507;52.418;13.398;2023-09-30T09:33:01;28.40;82.30
26952;DHT22;14507;52.418;13.398;2023-09-30T09:35:28;28.40;81.90
26952;DHT22;14507;52.418;13.398;2023-09-30T09:38:06;28.30;81.30
26952;DHT22;14507;52.418;13.398;2023-09-30T09:40:33;27.70;81.70
26952;DHT22;14507;52.418;13.398;2023-09-30T09:43:00;27.20;82.90
26952;DHT22;14507;52.418;13.398;2023-09-30T09:45:33;27.10;83.60
26952;DHT22;14507;52.418;13.398;2023-09-30T09:48:00;26.80;84.60
26952;DHT22;14507;52.418;13.398;2023-09-30T09:50:26;26.40;86.10
26952;DHT22;14507;52.418;13.398;2023-09-30T09:52:53;25.80;86.90
26952;DHT22;14507;52.418;13.398;2023-09-30T09:55:25;25.10;88.10
26952;DHT22;14507;52.418;13.398;2023-09-30T09:57:52;24.40;90.10
26952;DHT22;14507;52.418;13.398;2023-09-30T10:00:19;23.80;91.50
26952;DHT22;14507;52.418;13.398;2023-09-30T10:02:46;23.30;91.50
26952;DHT22;14507;52.418;13.398;2023-09-30T10:05:12;22.80;92.60
26952;DHT22;14507;52.418;13.398;2023-09-30T10:10:19;22.00;93.30
26952;DHT22;14507;52.418;13.398;2023-09-30T10:12:45;21.90;95.40
26952;DHT22;14507;52.418;13.398;2023-09-30T10:18:09;21.70;94.70
26952;DHT22;14507;52.418;13.398;2023-09-30T10:20:40;21.60;95.00
26952;DHT22;14507;52.418;13.398;2023-09-30T10:23:29;21.60;94.90
26952;DHT22;14507;52.418;13.398;2023-09-30T10:28:40;21.60;93.80
26952;DHT22;14507;52.418;13.398;2023-09-30T10:31:13;21.50;93.00
26952;DHT22;14507;52.418;13.398;2023-09-30T10:36:29;21.40;94.00
26952;DHT22;14507;52.418;13.398;2023-09-30T10:38:55;21.50;94.30
26952;DHT22;14507;52.418;13.398;2023-09-30T10:46:52;21.30;93.90
26952;DHT22;14507;52.418;13.398;2023-09-30T10:51:53;21.10;93.60
26952;DHT22;14507;52.418;13.398;2023-09-30T10:54:27;21.00;93.30
26952;DHT22;14507;52.418;13.398;2023-09-30T10:56:54;20.90;94.00
26952;DHT22;14507;52.418;13.398;2023-09-30T10:59:24;20.80;93.90
26952;DHT22;14507;52.418;13.398;2023-09-30T11:01:51;20.70;94.00
26952;DHT22;14507;52.418;13.398;2023-09-30T11:04:17;20.70;93.60
26952;DHT22;14507;52.418;13.398;2023-09-30T11:06:44;20.60;94.20
26952;DHT22;14507;52.418;13.398;2023-09-30T11:09:15;20.60;94.80
26952;DHT22;14507;52.418;13.398;2023-09-30T11:11:43;20.60;93.90
26952;DHT22;14507;52.418;13.398;2023-09-30T11:14:28;20.60;95.30
26952;DHT22;14507;52.418;13.398;2023-09-30T11:16:56;20.70;94.70
26952;DHT22;14507;52.418;13.398;2023-09-30T11:19:23;20.60;94.20
26952;DHT22;14507;52.418;13.398;2023-09-30T11:21:50;20.60;94.10
26952;DHT22;14507;52.418;13.398;2023-09-30T11:24:17;20.60;94.10
26952;DHT22;14507;52.418;13.398;2023-09-30T11:26:44;20.50;94.80
26952;DHT22;14507;52.418;13.398;2023-09-30T11:29:11;20.50;94.60
26952;DHT22;14507;52.418;13.398;2023-09-30T11:31:39;20.60;95.30
26952;DHT22;14507;52.418;13.398;2023-09-30T11:34:04;20.70;94.90
26952;DHT22;14507;52.418;13.398;2023-09-30T11:36:37;20.80;94.60
26952;DHT22;14507;52.418;13.398;2023-09-30T11:39:04;20.90;94.50
26952;DHT22;14507;52.418;13.398;2023-09-30T11:41:34;21.00;94.50
26952;DHT22;14507;52.418;13.398;2023-09-30T11:44:07;21.20;93.90
26952;DHT22;14507;52.418;13.398;2023-09-30T11:49:35;21.30;93.80
26952;DHT22;14507;52.418;13.398;2023-09-30T11:52:04;21.40;93.10
26952;DHT22;14507;52.418;13.398;2023-09-30T11:54:31;21.40;93.30
26952;DHT22;14507;52.418;13.398;2023-09-30T11:56:58;21.50;93.30
26952;DHT22;14507;52.418;13.398;2023-09-30T11:59:24;21.50;92.80
26952;DHT22;14507;52.418;13.398;2023-09-30T12:01:50;21.60;92.20
26952;DHT22;14507;52.418;13.398;2023-09-30T12:04:17;21.60;93.30
26952;DHT22;14507;52.418;13.398;2023-09-30T12:06:45;21.60;92.30
26952;DHT22;14507;52.418;13.398;2023-09-30T12:09:10;21.70;92.30
26952;DHT22;14507;52.418;13.398;2023-09-30T12:11:41;21.70;93.00
26952;DHT22;14507;52.418;13.398;2023-09-30T12:14:10;21.70;93.00
26952;DHT22;14507;52.418;13.398;2023-09-30T12:16:36;21.60;92.60
26952;DHT22;14507;52.418;13.398;2023-09-30T12:19:02;21.70;92.90
26952;DHT22;14507;52.418;13.398;2023-09-30T12:21:27;21.80;92.60
26952;DHT22;14507;52.418;13.398;2023-09-30T12:23:54;21.90;92.20
26952;DHT22;14507;52.418;13.398;2023-09-30T12:26:19;21.80;91.30
26952;DHT22;14507;52.418;13.398;2023-09-30T12:28:46;21.70;91.60
26952;DHT22;14507;52.418;13.398;2023-09-30T12:31:12;21.70;91.70
26952;DHT22;14507;52.418;13.398;2023-09-30T12:33:39;21.70;91.80
26952;DHT22;14507;52.418;13.398;2023-09-30T12:36:05;21.60;91.40
26952;DHT22;14507;52.418;13.398;2023-09-30T12:38:31;21.60;91.30
26952;DHT22;14507;52.418;13.398;2023-09-30T12:40:57;21.50;91.30
26952;DHT22;14507;52.418;13.398;2023-09-30T12:43:23;21.30;91.40
26952;DHT22;14507;52.418;13.398;2023-09-30T12:45:50;21.20;92.20
26952;DHT22;14507;52.418;13.398;2023-09-30T12:48:16;21.00;92.50
26952;DHT22;14507;52.418;13.398;2023-09-30T12:50:45;20.90;92.90
26952;DHT22;14507;52.418;13.398;2023-09-30T12:53:11;20.80;93.50
26952;DHT22;14507;52.418;13.398;2023-09-30T12:55:36;20.80;92.70
26952;DHT22;14507;52.418;13.398;2023-09-30T12:58:02;20.80;92.80
26952;DHT22;14507;52.418;13.398;2023-09-30T13:00:28;20.70;93.00
26952;DHT22;14507;52.418;13.398;2023-09-30T13:02:56;20.70;93.20
26952;DHT22;14507;52.418;13.398;2023-09-30T13:05:23;20.70;93.10
26952;DHT22;14507;52.418;13.398;2023-09-30T13:07:49;20.80;93.20
26952;DHT22;14507;52.418;13.398;2023-09-30T13:10:14;20.80;93.80
26952;DHT22;14507;52.418;13.398;2023-09-30T13:12:40;20.90;93.20
26952;DHT22;14507;52.418;13.398;2023-09-30T13:15:06;21.00;93.10
26952;DHT22;14507;52.418;13.398;2023-09-30T13:17:34;21.00;93.00
26952;DHT22;14507;52.418;13.398;2023-09-30T13:19:59;21.00;92.20
26952;DHT22;14507;52.418;13.398;2023-09-30T13:22:25;21.10;91.90
26952;DHT22;14507;52.418;13.398;2023-09-30T13:24:51;21.10;91.60
26952;DHT22;14507;52.418;13.398;2023-09-30T13:27:16;21.20;91.80
26952;DHT22;14507;52.418;13.398;2023-09-30T13:29:43;21.20;91.90
26952;DHT22;14507;52.418;13.398;2023-09-30T13:32:09;21.20;91.90
26952;DHT22;14507;52.418;13.398;2023-09-30T13:34:36;21.20;91.90
26952;DHT22;14507;52.418;13.398;2023-09-30T13:37:01;21.20;91.90
26952;DHT22;14507;52.418;13.398;2023-09-30T13:39:27;21.20;91.60
26952;DHT22;14507;52.418;13.398;2023-09-30T13:41:53;21.20;91.60
26952;DHT22;14507;52.418;13.398;2023-09-30T13:44:18;21.20;91.40
26952;DHT22;14507;52.418;13.398;2023-09-30T13:46:45;21.20;91.40
26952;DHT22;14507;52.418;13.398;2023-09-30T13:49:11;21.30;91.20
26952;DHT22;14507;52.418;13.398;2023-09-30T13:51:37;21.30;91.70
26952;DHT22;14507;52.418;13.398;2023-09-30T13:54:04;21.30;91.50
26952;DHT22;14507;52.418;13.398;2023-09-30T13:56:30;21.30;91.10
26952;DHT22;14507;52.418;13.398;2023-09-30T13:58:56;21.20;91.50
26952;DHT22;14507;52.418;13.398;2023-09-30T14:01:23;21.30;91.70
26952;DHT22;14507;52.418;13.398;2023-09-30T14:03:48;21.20;91.90
26952;DHT22;14507;52.418;13.398;2023-09-30T14:06:14;21.20;91.70
26952;DHT22;14507;52.418;13.398;2023-09-30T14:08:41;21.30;91.60
26952;DHT22;14507;52.418;13.398;2023-09-30T14:11:10;21.20;91.10
26952;DHT22;14507;52.418;13.398;2023-09-30T14:13:37;21.20;92.00
26952;DHT22;14507;52.418;13.398;2023-09-30T14:16:05;21.10;91.30
26952;DHT22;14507;52.418;13.398;2023-09-30T14:18:30;21.10;90.70
26952;DHT22;14507;52.418;13.398;2023-09-30T14:20:56;21.10;91.10
26952;DHT22;14507;52.418;13.398;2023-09-30T14:23:22;21.00;91.00
26952;DHT22;14507;52.418;13.398;2023-09-30T14:25:49;20.90;91.10
26952;DHT22;14507;52.418;13.398;2023-09-30T14:28:15;20.80;91.60
26952;DHT22;14507;52.418;13.398;2023-09-30T14:30:41;20.80;91.10
26952;DHT22;14507;52.418;13.398;2023-09-30T14:33:06;20.70;91.30
26952;DHT22;14507;52.418;13.398;2023-09-30T14:35:35;20.70;88.70
26952;DHT22;14507;52.418;13.398;2023-09-30T14:38:03;20.60;87.30
26952;DHT22;14507;52.418;13.398;2023-09-30T14:40:28;20.50;88.50
26952;DHT22;14507;52.418;13.398;2023-09-30T14:42:54;20.50;87.20
26952;DHT22;14507;52.418;13.398;2023-09-30T14:45:19;20.40;87.80
26952;DHT22;14507;52.418;13.398;2023-09-30T14:47:47;20.40;87.00
26952;DHT22;14507;52.418;13.398;2023-09-30T14:50:12;20.30;87.50
26952;DHT22;14507;52.418;13.398;2023-09-30T14:52:38;20.30;89.20
26952;DHT22;14507;52.418;13.398;2023-09-30T14:55:04;20.20;89.30
26952;DHT22;14507;52.418;13.398;2023-09-30T14:57:29;20.20;89.30
26952;DHT22;14507;52.418;13.398;2023-09-30T14:59:58;20.20;89.80
26952;DHT22;14507;52.418;13.398;2023-09-30T15:02:27;20.20;89.40
26952;DHT22;14507;52.418;13.398;2023-09-30T15:04:52;20.10;90.40
26952;DHT22;14507;52.418;13.398;2023-09-30T15:07:18;20.10;90.60
26952;DHT22;14507;52.418;13.398;2023-09-30T15:09:44;20.10;90.70
26952;DHT22;14507;52.418;13.398;2023-09-30T15:12:09;20.00;91.50
26952;DHT22;14507;52.418;13.398;2023-09-30T15:14:35;20.00;91.30
26952;DHT22;14507;52.418;13.398;2023-09-30T15:17:01;20.00;91.40
26952;DHT22;14507;52.418;13.398;2023-09-30T15:19:26;19.90;91.10
26952;DHT22;14507;52.418;13.398;2023-09-30T15:21:52;19.90;91.60
26952;DHT22;14507;52.418;13.398;2023-09-30T15:24:17;19.90;91.30
26952;DHT22;14507;52.418;13.398;2023-09-30T15:26:43;19.80;91.20
26952;DHT22;14507;52.418;13.398;2023-09-30T15:29:09;19.80;90.80
26952;DHT22;14507;52.418;13.398;2023-09-30T15:31:35;19.70;91.30
26952;DHT22;14507;52.418;13.398;2023-09-30T15:34:00;19.70;91.50
26952;DHT22;14507;52.418;13.398;2023-09-30T15:36:26;19.60;91.40